Terminal Aerodrome Forecast
Issued by NWS

Home | Current Version | Previous Version | Text Only | Print | Product List | Glossary On
Versions: 1 2 3 4 5 6 7 8 9 10 11 12 13 14
000
FTUS41 KBOX 291326 AAA
TAFBAF
TAF AMD
KBAF 291326Z 2913/3012 00000KT 6SM -RA BR SCT015 OVC090
     FM291430 02004KT P6SM VCSH BKN080
     FM291600 02005KT P6SM VCSH SCT090
     FM300000 VRB03KT P6SM SCT150
     FM300700 VRB03KT 4SM BR SCT150=

USA.gov is the U.S. government's official web portal to all federal, state and local government web resources and services.